sensor_id;sensor_type;location;lat;lon;timestamp;P1;durP1;ratioP1;P2;durP2;ratioP2
4422;SDS011;2224;49.814;8.650;2024-03-25T00:00:34;4.97;;;2.10;;
4422;SDS011;2224;49.814;8.650;2024-03-25T00:02:59;5.57;;;2.73;;
4422;SDS011;2224;49.814;8.650;2024-03-25T00:05:24;6.07;;;2.47;;
4422;SDS011;2224;49.814;8.650;2024-03-25T00:07:51;4.40;;;2.60;;
4422;SDS011;2224;49.814;8.650;2024-03-25T00:10:17;4.30;;;2.40;;
4422;SDS011;2224;49.814;8.650;2024-03-25T00:12:43;2.67;;;2.20;;
4422;SDS011;2224;49.814;8.650;2024-03-25T00:15:08;3.70;;;2.60;;
4422;SDS011;2224;49.814;8.650;2024-03-25T00:17:34;5.77;;;2.70;;
4422;SDS011;2224;49.814;8.650;2024-03-25T00:19:59;4.23;;;2.60;;
4422;SDS011;2224;49.814;8.650;2024-03-25T00:22:24;5.03;;;3.33;;
4422;SDS011;2224;49.814;8.650;2024-03-25T00:24:50;4.50;;;2.33;;
4422;SDS011;2224;49.814;8.650;2024-03-25T00:27:16;3.43;;;2.37;;
4422;SDS011;2224;49.814;8.650;2024-03-25T00:29:42;6.23;;;2.97;;
4422;SDS011;2224;49.814;8.650;2024-03-25T00:32:07;7.53;;;2.77;;
4422;SDS011;2224;49.814;8.650;2024-03-25T00:34:33;5.60;;;2.40;;
4422;SDS011;2224;49.814;8.650;2024-03-25T00:36:58;4.27;;;2.87;;
4422;SDS011;2224;49.814;8.650;2024-03-25T00:39:24;3.70;;;2.50;;
4422;SDS011;2224;49.814;8.650;2024-03-25T00:41:50;6.00;;;2.43;;
4422;SDS011;2224;49.814;8.650;2024-03-25T00:44:16;5.07;;;2.13;;
4422;SDS011;2224;49.814;8.650;2024-03-25T00:46:41;2.40;;;1.97;;
4422;SDS011;2224;49.814;8.650;2024-03-25T00:49:07;4.07;;;2.70;;
4422;SDS011;2224;49.814;8.650;2024-03-25T00:51:33;7.03;;;2.80;;
4422;SDS011;2224;49.814;8.650;2024-03-25T00:53:59;3.80;;;2.20;;
4422;SDS011;2224;49.814;8.650;2024-03-25T00:56:24;4.30;;;2.33;;
4422;SDS011;2224;49.814;8.650;2024-03-25T00:58:50;3.97;;;2.07;;
4422;SDS011;2224;49.814;8.650;2024-03-25T01:01:15;3.00;;;2.57;;
4422;SDS011;2224;49.814;8.650;2024-03-25T01:03:40;2.93;;;2.20;;
4422;SDS011;2224;49.814;8.650;2024-03-25T01:06:05;5.60;;;2.50;;
4422;SDS011;2224;49.814;8.650;2024-03-25T01:08:31;3.97;;;2.53;;
4422;SDS011;2224;49.814;8.650;2024-03-25T01:10:56;5.70;;;2.50;;
4422;SDS011;2224;49.814;8.650;2024-03-25T01:13:21;10.57;;;2.97;;
4422;SDS011;2224;49.814;8.650;2024-03-25T01:15:47;3.50;;;2.17;;
4422;SDS011;2224;49.814;8.650;2024-03-25T01:18:12;4.67;;;2.53;;
4422;SDS011;2224;49.814;8.650;2024-03-25T01:20:38;4.90;;;2.40;;
4422;SDS011;2224;49.814;8.650;2024-03-25T01:23:03;7.97;;;2.80;;
4422;SDS011;2224;49.814;8.650;2024-03-25T01:25:29;3.60;;;2.13;;
4422;SDS011;2224;49.814;8.650;2024-03-25T01:27:55;5.60;;;2.30;;
4422;SDS011;2224;49.814;8.650;2024-03-25T01:30:20;6.43;;;2.60;;
4422;SDS011;2224;49.814;8.650;2024-03-25T01:32:46;4.30;;;2.83;;
4422;SDS011;2224;49.814;8.650;2024-03-25T01:35:13;3.33;;;2.70;;
4422;SDS011;2224;49.814;8.650;2024-03-25T01:37:41;6.07;;;2.80;;
4422;SDS011;2224;49.814;8.650;2024-03-25T01:40:07;4.70;;;2.53;;
4422;SDS011;2224;49.814;8.650;2024-03-25T01:42:35;3.27;;;2.67;;
4422;SDS011;2224;49.814;8.650;2024-03-25T01:45:00;6.40;;;2.47;;
4422;SDS011;2224;49.814;8.650;2024-03-25T01:47:26;3.17;;;2.73;;
4422;SDS011;2224;49.814;8.650;2024-03-25T01:49:52;4.20;;;2.73;;
4422;SDS011;2224;49.814;8.650;2024-03-25T01:52:20;2.80;;;2.50;;
4422;SDS011;2224;49.814;8.650;2024-03-25T01:54:47;3.60;;;1.97;;
4422;SDS011;2224;49.814;8.650;2024-03-25T01:57:14;4.20;;;2.70;;
4422;SDS011;2224;49.814;8.650;2024-03-25T01:59:39;4.40;;;2.50;;
4422;SDS011;2224;49.814;8.650;2024-03-25T02:02:05;3.60;;;2.50;;
4422;SDS011;2224;49.814;8.650;2024-03-25T02:04:31;3.80;;;2.23;;
4422;SDS011;2224;49.814;8.650;2024-03-25T02:06:56;4.17;;;2.80;;
4422;SDS011;2224;49.814;8.650;2024-03-25T02:09:23;7.87;;;3.40;;
4422;SDS011;2224;49.814;8.650;2024-03-25T02:11:48;5.13;;;2.63;;
4422;SDS011;2224;49.814;8.650;2024-03-25T02:14:14;4.53;;;3.10;;
4422;SDS011;2224;49.814;8.650;2024-03-25T02:16:40;4.70;;;3.90;;
4422;SDS011;2224;49.814;8.650;2024-03-25T02:19:05;4.07;;;2.90;;
4422;SDS011;2224;49.814;8.650;2024-03-25T02:21:32;3.60;;;3.00;;
4422;SDS011;2224;49.814;8.650;2024-03-25T02:23:57;3.53;;;2.63;;
4422;SDS011;2224;49.814;8.650;2024-03-25T02:26:24;3.30;;;3.00;;
4422;SDS011;2224;49.814;8.650;2024-03-25T02:28:50;4.07;;;2.50;;
4422;SDS011;2224;49.814;8.650;2024-03-25T02:31:15;2.90;;;2.50;;
4422;SDS011;2224;49.814;8.650;2024-03-25T02:33:41;4.00;;;2.70;;
4422;SDS011;2224;49.814;8.650;2024-03-25T02:36:07;5.87;;;3.33;;
4422;SDS011;2224;49.814;8.650;2024-03-25T02:38:32;3.73;;;2.80;;
4422;SDS011;2224;49.814;8.650;2024-03-25T02:40:58;9.40;;;3.40;;
4422;SDS011;2224;49.814;8.650;2024-03-25T02:43:24;4.47;;;3.17;;
4422;SDS011;2224;49.814;8.650;2024-03-25T02:45:50;4.23;;;2.83;;
4422;SDS011;2224;49.814;8.650;2024-03-25T02:48:15;6.90;;;3.00;;
4422;SDS011;2224;49.814;8.650;2024-03-25T02:50:40;5.03;;;2.90;;
4422;SDS011;2224;49.814;8.650;2024-03-25T02:53:06;2.83;;;2.50;;
4422;SDS011;2224;49.814;8.650;2024-03-25T02:55:31;5.83;;;2.90;;
4422;SDS011;2224;49.814;8.650;2024-03-25T02:57:56;5.13;;;3.17;;
4422;SDS011;2224;49.814;8.650;2024-03-25T03:00:22;4.63;;;2.97;;
4422;SDS011;2224;49.814;8.650;2024-03-25T03:02:48;6.40;;;3.53;;
4422;SDS011;2224;49.814;8.650;2024-03-25T03:05:13;3.00;;;2.70;;
4422;SDS011;2224;49.814;8.650;2024-03-25T03:07:38;8.00;;;3.17;;
4422;SDS011;2224;49.814;8.650;2024-03-25T03:10:04;4.93;;;2.33;;
4422;SDS011;2224;49.814;8.650;2024-03-25T03:12:30;5.60;;;3.17;;
4422;SDS011;2224;49.814;8.650;2024-03-25T03:14:55;3.90;;;2.97;;
4422;SDS011;2224;49.814;8.650;2024-03-25T03:17:21;4.50;;;2.63;;
4422;SDS011;2224;49.814;8.650;2024-03-25T03:19:46;6.50;;;3.40;;
4422;SDS011;2224;49.814;8.650;2024-03-25T03:22:11;4.53;;;3.00;;
4422;SDS011;2224;49.814;8.650;2024-03-25T03:24:36;4.10;;;3.37;;
4422;SDS011;2224;49.814;8.650;2024-03-25T03:27:02;3.43;;;3.13;;
4422;SDS011;2224;49.814;8.650;2024-03-25T03:29:27;4.20;;;2.83;;
4422;SDS011;2224;49.814;8.650;2024-03-25T03:31:53;5.30;;;2.93;;
4422;SDS011;2224;49.814;8.650;2024-03-25T03:34:18;6.63;;;2.87;;
4422;SDS011;2224;49.814;8.650;2024-03-25T03:36:43;4.10;;;2.90;;
4422;SDS011;2224;49.814;8.650;2024-03-25T03:39:09;9.30;;;2.93;;
4422;SDS011;2224;49.814;8.650;2024-03-25T03:41:34;3.30;;;2.90;;
4422;SDS011;2224;49.814;8.650;2024-03-25T03:44:00;4.33;;;2.90;;
4422;SDS011;2224;49.814;8.650;2024-03-25T03:46:25;5.03;;;3.13;;
4422;SDS011;2224;49.814;8.650;2024-03-25T03:48:51;7.73;;;2.90;;
4422;SDS011;2224;49.814;8.650;2024-03-25T03:51:16;5.50;;;3.23;;
4422;SDS011;2224;49.814;8.650;2024-03-25T03:53:41;5.43;;;2.77;;
4422;SDS011;2224;49.814;8.650;2024-03-25T03:56:07;3.77;;;2.87;;
4422;SDS011;2224;49.814;8.650;2024-03-25T03:58:32;3.43;;;2.87;;
4422;SDS011;2224;49.814;8.650;2024-03-25T04:00:59;4.60;;;2.97;;
4422;SDS011;2224;49.814;8.650;2024-03-25T04:03:25;4.33;;;2.70;;
4422;SDS011;2224;49.814;8.650;2024-03-25T04:05:50;3.53;;;2.57;;
4422;SDS011;2224;49.814;8.650;2024-03-25T04:08:15;3.27;;;2.87;;
4422;SDS011;2224;49.814;8.650;2024-03-25T04:10:42;5.20;;;3.03;;
4422;SDS011;2224;49.814;8.650;2024-03-25T04:13:08;4.47;;;3.13;;
4422;SDS011;2224;49.814;8.650;2024-03-25T04:15:33;6.40;;;3.07;;
4422;SDS011;2224;49.814;8.650;2024-03-25T04:17:59;9.20;;;3.63;;
4422;SDS011;2224;49.814;8.650;2024-03-25T04:20:25;7.30;;;4.00;;
4422;SDS011;2224;49.814;8.650;2024-03-25T04:22:54;6.47;;;3.30;;
4422;SDS011;2224;49.814;8.650;2024-03-25T04:25:19;5.03;;;3.60;;
4422;SDS011;2224;49.814;8.650;2024-03-25T04:27:44;5.83;;;3.97;;
4422;SDS011;2224;49.814;8.650;2024-03-25T04:30:10;8.97;;;3.90;;
4422;SDS011;2224;49.814;8.650;2024-03-25T04:32:36;12.70;;;3.63;;
4422;SDS011;2224;49.814;8.650;2024-03-25T04:35:02;11.37;;;3.87;;
4422;SDS011;2224;49.814;8.650;2024-03-25T04:37:28;6.07;;;3.83;;
4422;SDS011;2224;49.814;8.650;2024-03-25T04:39:54;4.70;;;3.43;;
4422;SDS011;2224;49.814;8.650;2024-03-25T04:42:20;3.83;;;3.50;;
4422;SDS011;2224;49.814;8.650;2024-03-25T04:44:46;4.50;;;3.47;;
4422;SDS011;2224;49.814;8.650;2024-03-25T04:47:11;4.53;;;3.50;;
4422;SDS011;2224;49.814;8.650;2024-03-25T04:49:37;7.10;;;4.03;;
4422;SDS011;2224;49.814;8.650;2024-03-25T04:52:03;3.50;;;3.20;;
4422;SDS011;2224;49.814;8.650;2024-03-25T04:54:29;8.33;;;3.70;;
4422;SDS011;2224;49.814;8.650;2024-03-25T04:56:54;5.27;;;3.70;;
4422;SDS011;2224;49.814;8.650;2024-03-25T04:59:20;5.80;;;4.10;;
4422;SDS011;2224;49.814;8.650;2024-03-25T05:01:45;4.00;;;3.27;;
4422;SDS011;2224;49.814;8.650;2024-03-25T05:04:11;6.67;;;3.43;;
4422;SDS011;2224;49.814;8.650;2024-03-25T05:06:36;4.23;;;3.80;;
4422;SDS011;2224;49.814;8.650;2024-03-25T05:09:02;7.47;;;3.30;;
4422;SDS011;2224;49.814;8.650;2024-03-25T05:11:27;4.23;;;3.30;;
4422;SDS011;2224;49.814;8.650;2024-03-25T05:13:53;6.10;;;4.13;;
4422;SDS011;2224;49.814;8.650;2024-03-25T05:16:18;6.50;;;3.30;;
4422;SDS011;2224;49.814;8.650;2024-03-25T05:18:43;10.70;;;4.33;;
4422;SDS011;2224;49.814;8.650;2024-03-25T05:21:08;5.83;;;3.77;;
4422;SDS011;2224;49.814;8.650;2024-03-25T05:23:34;4.20;;;3.33;;
4422;SDS011;2224;49.814;8.650;2024-03-25T05:26:00;9.03;;;5.20;;
4422;SDS011;2224;49.814;8.650;2024-03-25T05:28:25;6.40;;;3.77;;
4422;SDS011;2224;49.814;8.650;2024-03-25T05:30:51;5.10;;;4.17;;
4422;SDS011;2224;49.814;8.650;2024-03-25T05:33:16;6.50;;;4.87;;
4422;SDS011;2224;49.814;8.650;2024-03-25T05:35:41;9.83;;;5.37;;
4422;SDS011;2224;49.814;8.650;2024-03-25T05:38:07;6.13;;;4.77;;
4422;SDS011;2224;49.814;8.650;2024-03-25T05:40:32;12.97;;;5.27;;
4422;SDS011;2224;49.814;8.650;2024-03-25T05:42:58;9.63;;;4.80;;
4422;SDS011;2224;49.814;8.650;2024-03-25T05:45:23;8.83;;;5.73;;
4422;SDS011;2224;49.814;8.650;2024-03-25T05:47:49;8.30;;;5.60;;
4422;SDS011;2224;49.814;8.650;2024-03-25T05:50:15;8.30;;;5.30;;
4422;SDS011;2224;49.814;8.650;2024-03-25T05:52:41;9.00;;;4.97;;
4422;SDS011;2224;49.814;8.650;2024-03-25T05:55:06;8.90;;;4.60;;
4422;SDS011;2224;49.814;8.650;2024-03-25T05:57:32;9.37;;;5.50;;
4422;SDS011;2224;49.814;8.650;2024-03-25T05:59:57;7.03;;;5.20;;
4422;SDS011;2224;49.814;8.650;2024-03-25T06:02:23;10.00;;;5.50;;
4422;SDS011;2224;49.814;8.650;2024-03-25T06:04:49;13.73;;;5.47;;
4422;SDS011;2224;49.814;8.650;2024-03-25T06:07:14;9.10;;;4.90;;
4422;SDS011;2224;49.814;8.650;2024-03-25T06:09:39;6.90;;;5.40;;
4422;SDS011;2224;49.814;8.650;2024-03-25T06:12:05;8.80;;;5.13;;
4422;SDS011;2224;49.814;8.650;2024-03-25T06:14:30;8.30;;;5.27;;
4422;SDS011;2224;49.814;8.650;2024-03-25T06:16:56;9.43;;;5.43;;
4422;SDS011;2224;49.814;8.650;2024-03-25T06:19:21;5.13;;;4.30;;
4422;SDS011;2224;49.814;8.650;2024-03-25T06:21:46;12.20;;;5.90;;
4422;SDS011;2224;49.814;8.650;2024-03-25T06:24:11;14.70;;;5.10;;
4422;SDS011;2224;49.814;8.650;2024-03-25T06:26:37;7.57;;;5.87;;
4422;SDS011;2224;49.814;8.650;2024-03-25T06:29:02;9.60;;;5.73;;
4422;SDS011;2224;49.814;8.650;2024-03-25T06:31:28;10.83;;;6.53;;
4422;SDS011;2224;49.814;8.650;2024-03-25T06:34:12;12.10;;;5.90;;
4422;SDS011;2224;49.814;8.650;2024-03-25T06:36:42;9.30;;;5.93;;
4422;SDS011;2224;49.814;8.650;2024-03-25T06:39:08;11.73;;;7.00;;
4422;SDS011;2224;49.814;8.650;2024-03-25T06:41:34;9.00;;;6.07;;
4422;SDS011;2224;49.814;8.650;2024-03-25T06:43:59;12.03;;;6.90;;
4422;SDS011;2224;49.814;8.650;2024-03-25T06:46:24;10.97;;;6.07;;
4422;SDS011;2224;49.814;8.650;2024-03-25T06:48:50;8.70;;;6.40;;
4422;SDS011;2224;49.814;8.650;2024-03-25T06:51:17;9.67;;;6.00;;
4422;SDS011;2224;49.814;8.650;2024-03-25T06:53:42;10.63;;;6.33;;
4422;SDS011;2224;49.814;8.650;2024-03-25T06:56:08;13.23;;;7.33;;
4422;SDS011;2224;49.814;8.650;2024-03-25T06:58:33;9.50;;;6.63;;
4422;SDS011;2224;49.814;8.650;2024-03-25T07:01:03;10.90;;;6.70;;
4422;SDS011;2224;49.814;8.650;2024-03-25T07:03:30;15.50;;;6.67;;
4422;SDS011;2224;49.814;8.650;2024-03-25T07:05:56;12.00;;;6.43;;
4422;SDS011;2224;49.814;8.650;2024-03-25T07:08:22;13.93;;;7.10;;
4422;SDS011;2224;49.814;8.650;2024-03-25T07:10:47;13.23;;;6.93;;
4422;SDS011;2224;49.814;8.650;2024-03-25T07:13:12;8.47;;;5.57;;
4422;SDS011;2224;49.814;8.650;2024-03-25T07:15:38;10.47;;;6.57;;
4422;SDS011;2224;49.814;8.650;2024-03-25T07:18:04;13.30;;;7.30;;
4422;SDS011;2224;49.814;8.650;2024-03-25T07:20:29;12.00;;;6.33;;
4422;SDS011;2224;49.814;8.650;2024-03-25T07:22:55;9.13;;;5.53;;
4422;SDS011;2224;49.814;8.650;2024-03-25T07:25:21;11.97;;;6.10;;
4422;SDS011;2224;49.814;8.650;2024-03-25T07:27:47;8.83;;;6.20;;
4422;SDS011;2224;49.814;8.650;2024-03-25T07:30:13;9.57;;;5.93;;
4422;SDS011;2224;49.814;8.650;2024-03-25T07:32:38;12.07;;;6.10;;
4422;SDS011;2224;49.814;8.650;2024-03-25T07:35:04;8.47;;;5.77;;
4422;SDS011;2224;49.814;8.650;2024-03-25T07:37:30;9.63;;;5.80;;
4422;SDS011;2224;49.814;8.650;2024-03-25T07:39:55;8.00;;;5.77;;
4422;SDS011;2224;49.814;8.650;2024-03-25T07:42:21;11.50;;;6.00;;
4422;SDS011;2224;49.814;8.650;2024-03-25T07:44:46;11.17;;;6.47;;
4422;SDS011;2224;49.814;8.650;2024-03-25T07:47:11;9.20;;;5.60;;
4422;SDS011;2224;49.814;8.650;2024-03-25T07:49:37;6.70;;;5.50;;
4422;SDS011;2224;49.814;8.650;2024-03-25T07:52:04;10.23;;;5.20;;
4422;SDS011;2224;49.814;8.650;2024-03-25T07:54:30;9.67;;;5.93;;
4422;SDS011;2224;49.814;8.650;2024-03-25T07:56:55;7.43;;;5.20;;
4422;SDS011;2224;49.814;8.650;2024-03-25T07:59:21;9.70;;;6.67;;
4422;SDS011;2224;49.814;8.650;2024-03-25T08:01:46;9.50;;;6.57;;
4422;SDS011;2224;49.814;8.650;2024-03-25T08:04:11;7.27;;;6.00;;
4422;SDS011;2224;49.814;8.650;2024-03-25T08:06:37;8.80;;;6.30;;
4422;SDS011;2224;49.814;8.650;2024-03-25T08:09:02;7.27;;;5.70;;
4422;SDS011;2224;49.814;8.650;2024-03-25T08:11:30;8.27;;;5.37;;
4422;SDS011;2224;49.814;8.650;2024-03-25T08:13:56;11.23;;;5.10;;
4422;SDS011;2224;49.814;8.650;2024-03-25T08:16:21;9.37;;;4.90;;
4422;SDS011;2224;49.814;8.650;2024-03-25T08:18:47;6.90;;;4.83;;
4422;SDS011;2224;49.814;8.650;2024-03-25T08:21:12;6.00;;;4.50;;
4422;SDS011;2224;49.814;8.650;2024-03-25T08:23:37;8.47;;;4.43;;
4422;SDS011;2224;49.814;8.650;2024-03-25T08:26:03;8.10;;;4.30;;
4422;SDS011;2224;49.814;8.650;2024-03-25T08:28:28;6.07;;;4.13;;
4422;SDS011;2224;49.814;8.650;2024-03-25T08:30:53;6.63;;;3.73;;
4422;SDS011;2224;49.814;8.650;2024-03-25T08:33:19;7.30;;;5.20;;
4422;SDS011;2224;49.814;8.650;2024-03-25T08:35:44;10.40;;;5.30;;
4422;SDS011;2224;49.814;8.650;2024-03-25T08:38:09;7.83;;;5.23;;
4422;SDS011;2224;49.814;8.650;2024-03-25T08:40:34;6.87;;;3.80;;
4422;SDS011;2224;49.814;8.650;2024-03-25T08:43:00;7.57;;;3.27;;
4422;SDS011;2224;49.814;8.650;2024-03-25T08:45:25;7.07;;;3.47;;
4422;SDS011;2224;49.814;8.650;2024-03-25T08:47:50;12.50;;;4.90;;
4422;SDS011;2224;49.814;8.650;2024-03-25T08:50:16;8.60;;;4.80;;
4422;SDS011;2224;49.814;8.650;2024-03-25T08:52:41;7.23;;;4.60;;
4422;SDS011;2224;49.814;8.650;2024-03-25T08:55:06;9.83;;;4.43;;
4422;SDS011;2224;49.814;8.650;2024-03-25T08:57:32;8.00;;;4.60;;
4422;SDS011;2224;49.814;8.650;2024-03-25T08:59:57;7.90;;;4.53;;
4422;SDS011;2224;49.814;8.650;2024-03-25T09:02:22;5.50;;;3.90;;
4422;SDS011;2224;49.814;8.650;2024-03-25T09:04:48;6.13;;;3.60;;
4422;SDS011;2224;49.814;8.650;2024-03-25T09:07:13;8.40;;;4.73;;
4422;SDS011;2224;49.814;8.650;2024-03-25T09:09:39;13.73;;;3.97;;
4422;SDS011;2224;49.814;8.650;2024-03-25T09:12:23;5.50;;;2.73;;
4422;SDS011;2224;49.814;8.650;2024-03-25T09:14:48;4.83;;;2.30;;
4422;SDS011;2224;49.814;8.650;2024-03-25T09:17:13;4.80;;;2.78;;
4422;SDS011;2224;49.814;8.650;2024-03-25T09:19:39;7.03;;;3.50;;
4422;SDS011;2224;49.814;8.650;2024-03-25T09:22:04;6.53;;;3.43;;
4422;SDS011;2224;49.814;8.650;2024-03-25T09:24:30;9.40;;;3.47;;
4422;SDS011;2224;49.814;8.650;2024-03-25T09:26:55;4.80;;;2.47;;
4422;SDS011;2224;49.814;8.650;2024-03-25T09:29:20;6.27;;;3.10;;
4422;SDS011;2224;49.814;8.650;2024-03-25T09:31:46;4.50;;;3.20;;
4422;SDS011;2224;49.814;8.650;2024-03-25T09:34:11;8.60;;;3.40;;
4422;SDS011;2224;49.814;8.650;2024-03-25T09:36:36;6.47;;;2.87;;
4422;SDS011;2224;49.814;8.650;2024-03-25T09:39:02;5.30;;;2.77;;
4422;SDS011;2224;49.814;8.650;2024-03-25T09:41:29;4.83;;;2.50;;
4422;SDS011;2224;49.814;8.650;2024-03-25T09:43:59;7.33;;;3.40;;
4422;SDS011;2224;49.814;8.650;2024-03-25T09:46:25;5.83;;;3.40;;
4422;SDS011;2224;49.814;8.650;2024-03-25T09:48:54;5.60;;;2.90;;
4422;SDS011;2224;49.814;8.650;2024-03-25T09:51:20;4.00;;;2.70;;
4422;SDS011;2224;49.814;8.650;2024-03-25T09:53:46;5.33;;;3.07;;
4422;SDS011;2224;49.814;8.650;2024-03-25T09:56:12;4.93;;;3.13;;
4422;SDS011;2224;49.814;8.650;2024-03-25T09:58:37;6.10;;;2.30;;
4422;SDS011;2224;49.814;8.650;2024-03-25T10:01:04;8.97;;;3.30;;
4422;SDS011;2224;49.814;8.650;2024-03-25T10:03:29;6.03;;;2.77;;
4422;SDS011;2224;49.814;8.650;2024-03-25T10:05:55;6.70;;;2.80;;
4422;SDS011;2224;49.814;8.650;2024-03-25T10:08:20;7.00;;;3.70;;
4422;SDS011;2224;49.814;8.650;2024-03-25T10:10:46;7.27;;;3.77;;
4422;SDS011;2224;49.814;8.650;2024-03-25T10:13:11;3.30;;;2.60;;
4422;SDS011;2224;49.814;8.650;2024-03-25T10:15:37;5.60;;;3.00;;
4422;SDS011;2224;49.814;8.650;2024-03-25T10:18:02;3.00;;;2.70;;
4422;SDS011;2224;49.814;8.650;2024-03-25T10:20:28;6.57;;;3.00;;
4422;SDS011;2224;49.814;8.650;2024-03-25T10:22:53;3.57;;;2.23;;
4422;SDS011;2224;49.814;8.650;2024-03-25T10:25:20;5.60;;;2.07;;
4422;SDS011;2224;49.814;8.650;2024-03-25T10:27:56;3.33;;;2.63;;
4422;SDS011;2224;49.814;8.650;2024-03-25T10:30:22;6.83;;;2.90;;
4422;SDS011;2224;49.814;8.650;2024-03-25T10:32:57;8.17;;;3.03;;
4422;SDS011;2224;49.814;8.650;2024-03-25T10:35:34;7.47;;;2.40;;
4422;SDS011;2224;49.814;8.650;2024-03-25T10:38:01;2.20;;;2.00;;
4422;SDS011;2224;49.814;8.650;2024-03-25T10:40:29;4.43;;;2.50;;
4422;SDS011;2224;49.814;8.650;2024-03-25T10:43:00;3.70;;;3.03;;
4422;SDS011;2224;49.814;8.650;2024-03-25T10:45:29;3.43;;;3.13;;
4422;SDS011;2224;49.814;8.650;2024-03-25T10:47:58;3.37;;;2.30;;
4422;SDS011;2224;49.814;8.650;2024-03-25T10:50:28;4.63;;;2.30;;
4422;SDS011;2224;49.814;8.650;2024-03-25T10:52:54;8.03;;;2.30;;
4422;SDS011;2224;49.814;8.650;2024-03-25T10:55:20;3.70;;;2.13;;
4422;SDS011;2224;49.814;8.650;2024-03-25T10:57:46;9.90;;;3.10;;
4422;SDS011;2224;49.814;8.650;2024-03-25T11:00:13;3.83;;;2.30;;
4422;SDS011;2224;49.814;8.650;2024-03-25T11:02:40;2.60;;;2.03;;
4422;SDS011;2224;49.814;8.650;2024-03-25T11:05:06;3.93;;;2.20;;
4422;SDS011;2224;49.814;8.650;2024-03-25T11:07:32;3.47;;;2.60;;
4422;SDS011;2224;49.814;8.650;2024-03-25T11:10:04;5.83;;;2.90;;
4422;SDS011;2224;49.814;8.650;2024-03-25T11:12:37;6.73;;;2.30;;
4422;SDS011;2224;49.814;8.650;2024-03-25T11:15:04;6.40;;;2.20;;
4422;SDS011;2224;49.814;8.650;2024-03-25T11:17:32;3.10;;;2.50;;
4422;SDS011;2224;49.814;8.650;2024-03-25T11:20:17;3.40;;;2.20;;
4422;SDS011;2224;49.814;8.650;2024-03-25T11:22:47;2.57;;;2.20;;
4422;SDS011;2224;49.814;8.650;2024-03-25T11:25:16;3.47;;;1.97;;
4422;SDS011;2224;49.814;8.650;2024-03-25T11:27:45;3.57;;;2.30;;
4422;SDS011;2224;49.814;8.650;2024-03-25T11:30:11;6.40;;;2.40;;
4422;SDS011;2224;49.814;8.650;2024-03-25T11:32:44;3.77;;;2.70;;
4422;SDS011;2224;49.814;8.650;2024-03-25T11:35:10;2.80;;;2.33;;
4422;SDS011;2224;49.814;8.650;2024-03-25T11:37:39;3.30;;;2.47;;
4422;SDS011;2224;49.814;8.650;2024-03-25T11:40:05;4.47;;;2.63;;
4422;SDS011;2224;49.814;8.650;2024-03-25T11:42:32;4.73;;;2.00;;
4422;SDS011;2224;49.814;8.650;2024-03-25T11:44:59;2.40;;;2.30;;
4422;SDS011;2224;49.814;8.650;2024-03-25T11:47:25;4.60;;;2.33;;
4422;SDS011;2224;49.814;8.650;2024-03-25T11:49:51;3.03;;;2.50;;
4422;SDS011;2224;49.814;8.650;2024-03-25T11:52:16;2.70;;;2.27;;
4422;SDS011;2224;49.814;8.650;2024-03-25T11:54:42;3.60;;;2.30;;
4422;SDS011;2224;49.814;8.650;2024-03-25T11:57:07;3.27;;;2.37;;
4422;SDS011;2224;49.814;8.650;2024-03-25T11:59:33;4.73;;;2.57;;
4422;SDS011;2224;49.814;8.650;2024-03-25T12:01:58;3.73;;;2.23;;
4422;SDS011;2224;49.814;8.650;2024-03-25T12:04:24;4.20;;;2.70;;
4422;SDS011;2224;49.814;8.650;2024-03-25T12:06:49;2.13;;;1.93;;
4422;SDS011;2224;49.814;8.650;2024-03-25T12:09:14;4.50;;;2.70;;
4422;SDS011;2224;49.814;8.650;2024-03-25T12:11:58;4.80;;;2.53;;
4422;SDS011;2224;49.814;8.650;2024-03-25T12:14:24;3.20;;;2.00;;
4422;SDS011;2224;49.814;8.650;2024-03-25T12:16:52;4.00;;;1.93;;
4422;SDS011;2224;49.814;8.650;2024-03-25T12:19:19;3.90;;;2.40;;
4422;SDS011;2224;49.814;8.650;2024-03-25T12:21:44;3.27;;;2.30;;
4422;SDS011;2224;49.814;8.650;2024-03-25T12:24:11;2.83;;;2.53;;
4422;SDS011;2224;49.814;8.650;2024-03-25T12:26:36;4.03;;;2.37;;
4422;SDS011;2224;49.814;8.650;2024-03-25T12:29:02;3.33;;;1.83;;
4422;SDS011;2224;49.814;8.650;2024-03-25T12:31:29;2.93;;;2.23;;
4422;SDS011;2224;49.814;8.650;2024-03-25T12:33:54;2.70;;;1.77;;
4422;SDS011;2224;49.814;8.650;2024-03-25T12:36:20;2.60;;;2.23;;
4422;SDS011;2224;49.814;8.650;2024-03-25T12:38:53;2.27;;;1.77;;
4422;SDS011;2224;49.814;8.650;2024-03-25T12:41:21;2.90;;;1.97;;
4422;SDS011;2224;49.814;8.650;2024-03-25T12:43:47;4.20;;;1.83;;
4422;SDS011;2224;49.814;8.650;2024-03-25T12:46:12;5.23;;;2.30;;
4422;SDS011;2224;49.814;8.650;2024-03-25T12:48:38;4.20;;;1.83;;
4422;SDS011;2224;49.814;8.650;2024-03-25T12:51:03;5.30;;;2.30;;
4422;SDS011;2224;49.814;8.650;2024-03-25T12:53:28;3.20;;;1.87;;
4422;SDS011;2224;49.814;8.650;2024-03-25T12:55:54;2.50;;;1.80;;
4422;SDS011;2224;49.814;8.650;2024-03-25T12:58:19;3.53;;;2.10;;
4422;SDS011;2224;49.814;8.650;2024-03-25T13:00:44;3.53;;;2.60;;
4422;SDS011;2224;49.814;8.650;2024-03-25T13:03:10;3.70;;;1.83;;
4422;SDS011;2224;49.814;8.650;2024-03-25T13:05:35;3.53;;;2.07;;
4422;SDS011;2224;49.814;8.650;2024-03-25T13:08:01;2.50;;;1.83;;
4422;SDS011;2224;49.814;8.650;2024-03-25T13:10:27;2.90;;;1.60;;
4422;SDS011;2224;49.814;8.650;2024-03-25T13:12:53;3.43;;;1.73;;
4422;SDS011;2224;49.814;8.650;2024-03-25T13:15:18;4.27;;;2.20;;
4422;SDS011;2224;49.814;8.650;2024-03-25T13:17:43;2.40;;;1.50;;
4422;SDS011;2224;49.814;8.650;2024-03-25T13:20:09;2.33;;;1.70;;
4422;SDS011;2224;49.814;8.650;2024-03-25T13:22:34;3.10;;;1.57;;
4422;SDS011;2224;49.814;8.650;2024-03-25T13:25:00;1.80;;;1.47;;
4422;SDS011;2224;49.814;8.650;2024-03-25T13:27:25;2.93;;;1.70;;
4422;SDS011;2224;49.814;8.650;2024-03-25T13:29:51;2.53;;;1.37;;
4422;SDS011;2224;49.814;8.650;2024-03-25T13:32:17;3.47;;;1.63;;
4422;SDS011;2224;49.814;8.650;2024-03-25T13:34:43;1.97;;;1.77;;
4422;SDS011;2224;49.814;8.650;2024-03-25T13:37:09;4.40;;;1.80;;
4422;SDS011;2224;49.814;8.650;2024-03-25T13:39:34;2.10;;;1.67;;
4422;SDS011;2224;49.814;8.650;2024-03-25T13:42:00;7.10;;;2.10;;
4422;SDS011;2224;49.814;8.650;2024-03-25T13:44:25;4.63;;;2.00;;
4422;SDS011;2224;49.814;8.650;2024-03-25T13:46:50;3.80;;;1.83;;
4422;SDS011;2224;49.814;8.650;2024-03-25T13:49:16;3.23;;;1.93;;
4422;SDS011;2224;49.814;8.650;2024-03-25T13:51:43;2.23;;;1.53;;
4422;SDS011;2224;49.814;8.650;2024-03-25T13:54:08;3.63;;;2.20;;
4422;SDS011;2224;49.814;8.650;2024-03-25T13:56:34;2.43;;;1.80;;
4422;SDS011;2224;49.814;8.650;2024-03-25T13:58:59;2.30;;;1.70;;
4422;SDS011;2224;49.814;8.650;2024-03-25T14:01:24;1.87;;;1.67;;
4422;SDS011;2224;49.814;8.650;2024-03-25T14:03:50;7.00;;;2.23;;
4422;SDS011;2224;49.814;8.650;2024-03-25T14:06:15;2.47;;;1.57;;
4422;SDS011;2224;49.814;8.650;2024-03-25T14:08:40;3.37;;;2.07;;
4422;SDS011;2224;49.814;8.650;2024-03-25T14:11:07;3.33;;;1.60;;
4422;SDS011;2224;49.814;8.650;2024-03-25T14:13:32;4.10;;;1.90;;
4422;SDS011;2224;49.814;8.650;2024-03-25T14:15:58;5.10;;;2.13;;
4422;SDS011;2224;49.814;8.650;2024-03-25T14:18:23;2.60;;;1.60;;
4422;SDS011;2224;49.814;8.650;2024-03-25T14:20:50;4.03;;;2.10;;
4422;SDS011;2224;49.814;8.650;2024-03-25T14:23:16;1.57;;;1.33;;
4422;SDS011;2224;49.814;8.650;2024-03-25T14:25:42;4.30;;;1.70;;
4422;SDS011;2224;49.814;8.650;2024-03-25T14:28:07;1.87;;;1.30;;
4422;SDS011;2224;49.814;8.650;2024-03-25T14:30:32;2.20;;;1.77;;
4422;SDS011;2224;49.814;8.650;2024-03-25T14:32:57;2.47;;;1.43;;
4422;SDS011;2224;49.814;8.650;2024-03-25T14:35:24;3.90;;;1.90;;
4422;SDS011;2224;49.814;8.650;2024-03-25T14:37:49;2.00;;;1.63;;
4422;SDS011;2224;49.814;8.650;2024-03-25T14:40:15;2.13;;;1.00;;
4422;SDS011;2224;49.814;8.650;2024-03-25T14:42:42;6.70;;;1.80;;
4422;SDS011;2224;49.814;8.650;2024-03-25T14:45:07;3.93;;;2.03;;
4422;SDS011;2224;49.814;8.650;2024-03-25T14:47:33;4.03;;;1.67;;
4422;SDS011;2224;49.814;8.650;2024-03-25T14:49:58;4.60;;;1.70;;
4422;SDS011;2224;49.814;8.650;2024-03-25T14:52:24;3.50;;;1.80;;
4422;SDS011;2224;49.814;8.650;2024-03-25T14:54:49;3.20;;;1.60;;
4422;SDS011;2224;49.814;8.650;2024-03-25T14:57:15;2.07;;;1.37;;
4422;SDS011;2224;49.814;8.650;2024-03-25T14:59:41;3.43;;;1.80;;
4422;SDS011;2224;49.814;8.650;2024-03-25T15:02:06;3.30;;;1.90;;
4422;SDS011;2224;49.814;8.650;2024-03-25T15:04:32;3.33;;;1.60;;
4422;SDS011;2224;49.814;8.650;2024-03-25T15:06:58;4.63;;;1.67;;